Terminal Aerodrome Forecast
Issued by NWS

Home | Current Version | Previous Version | Text Only | Print | Product List | Glossary On
Versions: 1 2 3 4 5 6 7 8 9 10 11 12 13 14 15 16 17 18 19 20 21 22 23 24
981
FTUS46 KOTX 241726
TAFCOE
TAF
KCOE 241726Z 2418/2518 VRB03KT P6SM SCT030 SCT060
     FM242100 23006KT P6SM BKN060 OVC100
     FM250200 17005KT P6SM VCSH OVC070
     FM250800 11003KT P6SM BKN060 OVC150
     FM251300 08005KT P6SM SCT070 BKN150=

USA.gov is the U.S. government's official web portal to all federal, state and local government web resources and services.